Narsis — 5IM513 — position and weather

sailwx.info

Track history (hours):
 
Tides and Currents Weather Stations Pressure Air Temp Water Temp Dewpoint Dewpoint Depression Visibility Wind Speed Wind Dir Waves Ship Positions

Narsis

Last reported at 2017-Dec-04 10:22 UTC. Time now 2017-Dec-17 17:53 UTC.
Position N 37°16' E 026°57'.
Warning: this ship's position is 13 days out of date.

Length 92 m; draft 7 m.

Type: Ship (hazmat cat B). MMSI: 677041300.

Date/timePositionNaut miles runAvg speedWind from/ knotsBaromVisibWave heightAir tempDewpointWater temp
2017-Dec-04 10:22N 37°16' E 026°57'3 7.4
2017-Dec-04 09:59N 37°18' E 026°55'3 7.1
2017-Dec-04 09:30N 37°21' E 026°52'3 6.7
2017-Dec-04 09:00N 37°23' E 026°50'4 6.8
2017-Dec-04 08:25N 37°27' E 026°47'12 6.8
2017-Dec-04 06:43N 37°36' E 026°38'1 6.5
2017-Dec-04 06:30N 37°37' E 026°37'3 6.5
2017-Dec-04 06:00N 37°40' E 026°35'9 6.2
2017-Dec-04 04:32N 37°48' E 026°29'0 6.2
2017-Dec-04 04:30N 37°48' E 026°29'5 6.2
2017-Dec-04 03:46N 37°52' E 026°26'  
Track history (hours):
 
Tides and Currents Weather Stations Pressure Air Temp Water Temp Dewpoint Dewpoint Depression Visibility Wind Speed Wind Dir Waves Ship Positions

Narsis

Last reported at 2017-Dec-04 10:22 UTC. Time now 2017-Dec-17 17:53 UTC.
Position N 37°16' E 026°57'.
Warning: this ship's position is 13 days out of date.

Length 92 m; draft 7 m.

Type: Ship (hazmat cat B). MMSI: 677041300.

Date/timePositionNaut miles runAvg speedWind from/ knotsBaromVisibWave heightAir tempDewpointWater temp
2017-Dec-04 10:22N 37°16' E 026°57'3 7.4
2017-Dec-04 09:59N 37°18' E 026°55'3 7.1
2017-Dec-04 09:30N 37°21' E 026°52'3 6.7
2017-Dec-04 09:00N 37°23' E 026°50'4 6.8
2017-Dec-04 08:25N 37°27' E 026°47'12 6.8
2017-Dec-04 06:43N 37°36' E 026°38'1 6.5
2017-Dec-04 06:30N 37°37' E 026°37'3 6.5
2017-Dec-04 06:00N 37°40' E 026°35'9 6.2
2017-Dec-04 04:32N 37°48' E 026°29'0 6.2
2017-Dec-04 04:30N 37°48' E 026°29'5 6.2
2017-Dec-04 03:46N 37°52' E 026°26'  

Dump ship's entire track history